Helen Merril — WDF2994 — position and weather

sailwx.info

Track history (hours):
 
Tides and Currents Weather Stations Pressure Air Temp Water Temp Dewpoint Dewpoint Depression Visibility Wind Speed Wind Dir Waves Ship Positions

Helen Merril

Owner: SCF Waxler Marine LLC, St. Rose, LA. More information available from US FCC via Universal Licensing System and Coast Guard Vessel Documentation Center.

Last reported at 2014-Jun-16 12:33 UTC. Time now 2014-Oct-21 21:35 UTC.
Position N 30°02' W 090°38'.
Warning: this ship's position is months out of date.

Length 33 m; draft 3 m.

Type: Ship (hazmat cat A). MMSI: 367434260.

Date/timePositionNaut miles runAvg speedWind from/ knotsBaromVisibWave heightAir tempDewpointWater temp
2014-Jun-16 12:33N 30°02' W 090°38'2 1.6
2014-Jun-16 11:33N 30°02' W 090°36'0 0.1
2014-Jun-16 10:33N 30°02' W 090°36'0 0.1
2014-Jun-16 09:33N 30°02' W 090°36'0 0.5
2014-Jun-16 08:33N 30°03' W 090°36'0 0.0
2014-Jun-16 07:33N 30°03' W 090°36'0 0.0
2014-Jun-16 06:33N 30°03' W 090°36'0 0.0
2014-Jun-16 05:33N 30°03' W 090°36'0 0.0
2014-Jun-16 04:33N 30°03' W 090°36'0 0.0
2014-Jun-16 03:33N 30°03' W 090°36'0 0.0
2014-Jun-16 02:33N 30°03' W 090°36'0 0.0
2014-Jun-16 01:33N 30°03' W 090°36'0 0.0
2014-Jun-16 00:33N 30°03' W 090°36'0 0.0
2014-Jun-15 23:33N 30°03' W 090°36'0 0.0
2014-Jun-15 22:33N 30°03' W 090°36'0 0.0
2014-Jun-15 21:33N 30°03' W 090°36'0 0.0
2014-Jun-15 20:33N 30°03' W 090°36'0 0.0
2014-Jun-15 19:33N 30°03' W 090°36'0 0.0
2014-Jun-15 18:33N 30°03' W 090°36'0 0.0
2014-Jun-15 17:33N 30°03' W 090°36'0 0.0
2014-Jun-15 16:33N 30°03' W 090°36'0 0.0
2014-Jun-15 15:33N 30°03' W 090°36'0 0.0
2014-Jun-15 14:33N 30°03' W 090°36'0 0.0
2014-Jun-15 13:33N 30°03' W 090°36'0 0.0
2014-Jun-15 12:33N 30°03' W 090°36'0 0.0
2014-Jun-15 11:33N 30°03' W 090°36'0 0.0
2014-Jun-15 10:33N 30°03' W 090°36'0 0.0
2014-Jun-15 09:33N 30°03' W 090°36'0 0.0
2014-Jun-15 08:33N 30°03' W 090°36'0 0.0
2014-Jun-15 07:33N 30°03' W 090°36'0 0.0
2014-Jun-15 06:33N 30°03' W 090°36'0 0.0
2014-Jun-15 05:33N 30°03' W 090°36'0 0.0
2014-Jun-15 04:33N 30°03' W 090°36'0 0.0
2014-Jun-15 03:33N 30°03' W 090°36'0 0.0
2014-Jun-15 02:33N 30°03' W 090°36'0 0.0
2014-Jun-15 01:33N 30°03' W 090°36'0 0.0
2014-Jun-15 00:33N 30°03' W 090°36'0 0.0
2014-Jun-14 23:33N 30°03' W 090°36'0 0.0
2014-Jun-14 22:33N 30°03' W 090°36'0 0.0
2014-Jun-14 21:33N 30°03' W 090°36'0 0.4
2014-Jun-14 20:33N 30°03' W 090°36'0 0.1
2014-Jun-14 19:33N 30°03' W 090°35'0 0.0
2014-Jun-14 18:33N 30°03' W 090°35'1 1.5
2014-Jun-14 17:33N 30°02' W 090°37'0 0.0
2014-Jun-14 16:33N 30°02' W 090°37'0 0.0
2014-Jun-14 15:33N 30°02' W 090°37'0 0.0
2014-Jun-14 14:33N 30°02' W 090°37'0 0.0
2014-Jun-14 13:33N 30°02' W 090°37'1 1.5
2014-Jun-14 12:33N 30°03' W 090°35'0 0.0
2014-Jun-14 11:33N 30°03' W 090°35'0 0.0
2014-Jun-14 10:33N 30°03' W 090°35'0 0.0
2014-Jun-14 09:33N 30°03' W 090°35'0 0.0
2014-Jun-14 08:33N 30°03' W 090°35'0 0.0
2014-Jun-14 07:33N 30°03' W 090°35'0 0.0
2014-Jun-14 06:33N 30°03' W 090°35'0 0.0
2014-Jun-14 05:33N 30°03' W 090°35'0 0.0
2014-Jun-14 04:33N 30°03' W 090°35'1 1.5
2014-Jun-14 03:33N 30°02' W 090°37'0 0.0
2014-Jun-14 02:33N 30°02' W 090°37'0 0.0
2014-Jun-14 01:33N 30°02' W 090°37'1 0.9
2014-Jun-14 00:33N 30°03' W 090°36'1 0.6
2014-Jun-13 23:33N 30°03' W 090°35'0 0.0
2014-Jun-13 22:33N 30°03' W 090°35'0 0.0
2014-Jun-13 21:33N 30°03' W 090°35'0 0.0
2014-Jun-13 20:33N 30°03' W 090°35'0 0.3
2014-Jun-13 19:33N 30°03' W 090°36'11 7.3
2014-Jun-13 18:05N 30°00' W 090°48'3 4.6
2014-Jun-13 17:25N 30°02' W 090°50'  
Track history (hours):
 
Tides and Currents Weather Stations Pressure Air Temp Water Temp Dewpoint Dewpoint Depression Visibility Wind Speed Wind Dir Waves Ship Positions

Helen Merril

Owner: SCF Waxler Marine LLC, St. Rose, LA. More information available from US FCC via Universal Licensing System and Coast Guard Vessel Documentation Center.

Last reported at 2014-Jun-16 12:33 UTC. Time now 2014-Oct-21 21:35 UTC.
Position N 30°02' W 090°38'.
Warning: this ship's position is months out of date.

Length 33 m; draft 3 m.

Type: Ship (hazmat cat A). MMSI: 367434260.

Date/timePositionNaut miles runAvg speedWind from/ knotsBaromVisibWave heightAir tempDewpointWater temp
2014-Jun-16 12:33N 30°02' W 090°38'2 1.6
2014-Jun-16 11:33N 30°02' W 090°36'0 0.1
2014-Jun-16 10:33N 30°02' W 090°36'0 0.1
2014-Jun-16 09:33N 30°02' W 090°36'0 0.5
2014-Jun-16 08:33N 30°03' W 090°36'0 0.0
2014-Jun-16 07:33N 30°03' W 090°36'0 0.0
2014-Jun-16 06:33N 30°03' W 090°36'0 0.0
2014-Jun-16 05:33N 30°03' W 090°36'0 0.0
2014-Jun-16 04:33N 30°03' W 090°36'0 0.0
2014-Jun-16 03:33N 30°03' W 090°36'0 0.0
2014-Jun-16 02:33N 30°03' W 090°36'0 0.0
2014-Jun-16 01:33N 30°03' W 090°36'0 0.0
2014-Jun-16 00:33N 30°03' W 090°36'0 0.0
2014-Jun-15 23:33N 30°03' W 090°36'0 0.0
2014-Jun-15 22:33N 30°03' W 090°36'0 0.0
2014-Jun-15 21:33N 30°03' W 090°36'0 0.0
2014-Jun-15 20:33N 30°03' W 090°36'0 0.0
2014-Jun-15 19:33N 30°03' W 090°36'0 0.0
2014-Jun-15 18:33N 30°03' W 090°36'0 0.0
2014-Jun-15 17:33N 30°03' W 090°36'0 0.0
2014-Jun-15 16:33N 30°03' W 090°36'0 0.0
2014-Jun-15 15:33N 30°03' W 090°36'0 0.0
2014-Jun-15 14:33N 30°03' W 090°36'0 0.0
2014-Jun-15 13:33N 30°03' W 090°36'0 0.0
2014-Jun-15 12:33N 30°03' W 090°36'0 0.0
2014-Jun-15 11:33N 30°03' W 090°36'0 0.0
2014-Jun-15 10:33N 30°03' W 090°36'0 0.0
2014-Jun-15 09:33N 30°03' W 090°36'0 0.0
2014-Jun-15 08:33N 30°03' W 090°36'0 0.0
2014-Jun-15 07:33N 30°03' W 090°36'0 0.0
2014-Jun-15 06:33N 30°03' W 090°36'0 0.0
2014-Jun-15 05:33N 30°03' W 090°36'0 0.0
2014-Jun-15 04:33N 30°03' W 090°36'0 0.0
2014-Jun-15 03:33N 30°03' W 090°36'0 0.0
2014-Jun-15 02:33N 30°03' W 090°36'0 0.0
2014-Jun-15 01:33N 30°03' W 090°36'0 0.0
2014-Jun-15 00:33N 30°03' W 090°36'0 0.0
2014-Jun-14 23:33N 30°03' W 090°36'0 0.0
2014-Jun-14 22:33N 30°03' W 090°36'0 0.0
2014-Jun-14 21:33N 30°03' W 090°36'0 0.4
2014-Jun-14 20:33N 30°03' W 090°36'0 0.1
2014-Jun-14 19:33N 30°03' W 090°35'0 0.0
2014-Jun-14 18:33N 30°03' W 090°35'1 1.5
2014-Jun-14 17:33N 30°02' W 090°37'0 0.0
2014-Jun-14 16:33N 30°02' W 090°37'0 0.0
2014-Jun-14 15:33N 30°02' W 090°37'0 0.0
2014-Jun-14 14:33N 30°02' W 090°37'0 0.0
2014-Jun-14 13:33N 30°02' W 090°37'1 1.5
2014-Jun-14 12:33N 30°03' W 090°35'0 0.0
2014-Jun-14 11:33N 30°03' W 090°35'0 0.0
2014-Jun-14 10:33N 30°03' W 090°35'0 0.0
2014-Jun-14 09:33N 30°03' W 090°35'0 0.0
2014-Jun-14 08:33N 30°03' W 090°35'0 0.0
2014-Jun-14 07:33N 30°03' W 090°35'0 0.0
2014-Jun-14 06:33N 30°03' W 090°35'0 0.0
2014-Jun-14 05:33N 30°03' W 090°35'0 0.0
2014-Jun-14 04:33N 30°03' W 090°35'1 1.5
2014-Jun-14 03:33N 30°02' W 090°37'0 0.0
2014-Jun-14 02:33N 30°02' W 090°37'0 0.0
2014-Jun-14 01:33N 30°02' W 090°37'1 0.9
2014-Jun-14 00:33N 30°03' W 090°36'1 0.6
2014-Jun-13 23:33N 30°03' W 090°35'0 0.0
2014-Jun-13 22:33N 30°03' W 090°35'0 0.0
2014-Jun-13 21:33N 30°03' W 090°35'0 0.0
2014-Jun-13 20:33N 30°03' W 090°35'0 0.3
2014-Jun-13 19:33N 30°03' W 090°36'11 7.3
2014-Jun-13 18:05N 30°00' W 090°48'3 4.6
2014-Jun-13 17:25N 30°02' W 090°50'  

Dump ship's entire track history